メインページ
METAR-TAF:

METAR-TAF

空港 :

ブリュッセル, ベルギー

ブリュッセル空港

緯度: 50-54N, 経度: 004-32E, 海抜: 55m

現時点の気象観測

当レポートは33分前の12:50(UTC)に作成
東/北東の風 5kt、北/北東から東/南東の間で変化する
気温 19°C
湿度 64%
気圧 1020 hPa
視程10km以上
高度3400ftの雲はほとんどない

METAR: EBBR 251250Z 06005KT 020V110 9999 FEW034 19/12 Q1020 NOSIG

時間: 15:23 (13:23 UTC)

予報

当レポートは2時間13分前の11:10(UTC)に作成
予報は25日の 12時(UTC)から 26日の 18時(UTC)まで有効
東/北東の風 6kt
視程10km以上
高度3000ftの雲はほとんどない
26日の 00時(UTC)から 26日の 02時(UTC)まで徐々に
視程: 2500m
確率 40% :
26日の 03時(UTC)から 26日の 09時(UTC)まで一時的に
視程: 0500m
高度100ftの千切れ雲あり
26日の 08時(UTC)から 26日の 10時(UTC)まで徐々に
視程: 8000m
高度1500ftの雲は散在している

TAF: EBBR 251110Z 2512/2618 07006KT 9999 FEW030 BECMG 2600/2602 2500 BR PROB40 TEMPO 2603/2609 0500 FG BKN001 BECMG 2608/2610 8000 NSW SCT015

4,000以上の空港の気象観測と天気予報(METAR報とTAF報)

利用可能な観測所は地図上に黄色い丸と赤い丸で示す。

丸の上にカーソルを重ねると観測所名を参照できる。

次にクリックすると気象観測と天気予報を参照できる。

マップの切り替え:黒色「×」印の緑ボタンをクリックして拡大、「-」印の緑ボタンをクリックして縮小、緑色の三角印をクリックして隣りの地図に切り替え


METAR-TAF: